Time;durP1;ratioP1;P1;durP2;ratioP2;P2;SDS_P1;SDS_P2;PMS_P1;PMS_P2;Temp;Humidity;BMP_temperature;BMP_pressure;BME280_temperature;BME280_humidity;BME280_pressure;Samples;Min_cycle;Max_cycle;Signal;HPM_P1;HPM_P2
2023/06/13 16:31:17;;;;;;;32.97;5.47;;;;;;;;;;5002625;28;20418;-55
2023/06/13 16:33:43;;;;;;;45.33;7.43;;;;;;;;;;4979310;28;20036;-56
2023/06/13 16:36:08;;;;;;;37.63;6.40;;;;;;;;;;4980777;28;20034;-56
2023/06/13 16:38:33;;;;;;;29.75;5.80;;;;;;;;;;4979638;28;20266;-57
2023/06/13 16:40:58;;;;;;;34.22;6.10;;;;;;;;;;4980322;28;20038;-57
2023/06/13 16:43:24;;;;;;;24.90;5.23;;;;;;;;;;4981921;28;20037;-56
2023/06/13 16:45:49;;;;;;;50.77;7.77;;;;;;;;;;4978036;28;20046;-58
2023/06/13 16:48:14;;;;;;;22.80;5.07;;;;;;;;;;4980704;28;20569;-56
2023/06/13 16:50:40;;;;;;;42.97;7.07;;;;;;;;;;4978978;28;20199;-62
2023/06/13 16:53:05;;;;;;;36.33;6.13;;;;;;;;;;4982315;28;21043;-56
2023/06/13 16:55:30;;;;;;;27.10;5.60;;;;;;;;;;4980567;28;20266;-56
2023/06/13 16:57:55;;;;;;;25.30;5.70;;;;;;;;;;4978192;28;20035;-57
2023/06/13 17:00:21;;;;;;;24.90;5.00;;;;;;;;;;4978064;28;20024;-57
2023/06/13 17:02:47;;;;;;;53.55;7.72;;;;;;;;;;4979092;28;20270;-55
2023/06/13 17:05:12;;;;;;;21.48;4.90;;;;;;;;;;4977504;28;20054;-57
2023/06/13 17:07:38;;;;;;;35.95;6.45;;;;;;;;;;4977358;28;20671;-56
2023/06/13 17:10:04;;;;;;;30.23;5.30;;;;;;;;;;4978609;28;20015;-57
2023/06/13 17:12:29;;;;;;;27.42;5.80;;;;;;;;;;4980168;28;20034;-55
2023/06/13 17:14:54;;;;;;;27.50;5.30;;;;;;;;;;4978090;28;21512;-55
2023/06/13 17:17:19;;;;;;;24.10;4.90;;;;;;;;;;4978114;28;20288;-55
2023/06/13 17:19:45;;;;;;;46.90;6.90;;;;;;;;;;4980670;28;20113;-56
2023/06/13 17:22:10;;;;;;;30.13;5.63;;;;;;;;;;4978920;28;20999;-56
2023/06/13 17:24:35;;;;;;;24.90;5.30;;;;;;;;;;4977550;28;20117;-56
2023/06/13 17:27:01;;;;;;;28.70;5.72;;;;;;;;;;4977279;28;20043;-55
2023/06/13 17:29:27;;;;;;;27.70;5.43;;;;;;;;;;4979053;28;20033;-56
2023/06/13 17:31:52;;;;;;;46.47;7.85;;;;;;;;;;4976929;28;21275;-56
2023/06/13 17:34:17;;;;;;;24.40;5.03;;;;;;;;;;4978332;28;20125;-56
2023/06/13 17:36:43;;;;;;;43.03;6.90;;;;;;;;;;4975875;28;20038;-55
2023/06/13 17:39:08;;;;;;;28.52;5.82;;;;;;;;;;4978093;28;20030;-54
2023/06/13 17:41:34;;;;;;;32.42;6.15;;;;;;;;;;4972409;28;20038;-55
2023/06/13 17:43:59;;;;;;;28.15;5.20;;;;;;;;;;4965355;28;20057;-56
2023/06/13 17:46:25;;;;;;;27.70;5.30;;;;;;;;;;4963862;28;20085;-58
2023/06/13 17:48:50;;;;;;;51.83;7.93;;;;;;;;;;4965039;28;20277;-56
2023/06/13 17:51:16;;;;;;;23.73;5.15;;;;;;;;;;4975956;28;20054;-55
2023/06/13 17:53:41;;;;;;;44.23;6.70;;;;;;;;;;4984564;28;20049;-57
2023/06/13 17:56:06;;;;;;;34.37;5.97;;;;;;;;;;4983765;28;20380;-57
2023/06/13 17:58:31;;;;;;;24.95;5.00;;;;;;;;;;4985717;28;20276;-57
2023/06/13 18:00:57;;;;;;;28.63;5.65;;;;;;;;;;4983048;28;20117;-58
2023/06/13 18:03:22;;;;;;;30.10;6.05;;;;;;;;;;4984040;28;20888;-60
2023/06/13 18:05:49;;;;;;;41.60;6.73;;;;;;;;;;4983850;28;20607;-60
2023/06/13 18:08:14;;;;;;;24.98;4.97;;;;;;;;;;4985174;28;20308;-58
2023/06/13 18:10:40;;;;;;;35.17;5.80;;;;;;;;;;4985377;28;20121;-58
2023/06/13 18:13:05;;;;;;;35.85;6.03;;;;;;;;;;4985488;28;20910;-59
2023/06/13 18:15:30;;;;;;;30.43;5.33;;;;;;;;;;4983233;28;20038;-58
2023/06/13 18:17:55;;;;;;;55.60;8.45;;;;;;;;;;4983663;28;20037;-59
2023/06/13 18:20:21;;;;;;;24.55;4.70;;;;;;;;;;4984641;28;20029;-57
2023/06/13 18:22:46;;;;;;;57.33;8.88;;;;;;;;;;4983042;28;20098;-59
2023/06/13 18:25:11;;;;;;;37.80;6.37;;;;;;;;;;4984842;28;20108;-58
2023/06/13 18:27:37;;;;;;;32.33;5.65;;;;;;;;;;4984323;28;20014;-58
2023/06/13 18:30:02;;;;;;;36.92;6.28;;;;;;;;;;4982482;28;20022;-58
2023/06/13 18:32:27;;;;;;;40.42;6.75;;;;;;;;;;4984198;28;20034;-59
2023/06/13 18:34:53;;;;;;;57.33;8.63;;;;;;;;;;4987150;28;20699;-59
2023/06/13 18:37:18;;;;;;;33.80;6.07;;;;;;;;;;4984144;28;20297;-57
2023/06/13 18:39:46;;;;;;;44.92;6.95;;;;;;;;;;4982966;28;20033;-58
2023/06/13 18:42:12;;;;;;;31.35;5.93;;;;;;;;;;4986991;28;20706;-58
2023/06/13 18:44:40;;;;;;;39.97;6.70;;;;;;;;;;4985530;28;20024;-56
2023/06/13 18:47:05;;;;;;;41.55;6.78;;;;;;;;;;4981146;28;20986;-57
2023/06/13 18:49:31;;;;;;;34.35;6.07;;;;;;;;;;4984114;28;20022;-59
2023/06/13 18:51:56;;;;;;;61.00;8.55;;;;;;;;;;4984296;28;20058;-57
2023/06/13 18:54:21;;;;;;;37.30;6.07;;;;;;;;;;4984067;28;20046;-59
2023/06/13 18:56:47;;;;;;;58.07;8.53;;;;;;;;;;4982385;28;20113;-56
2023/06/13 18:59:12;;;;;;;32.92;5.78;;;;;;;;;;4985680;28;20696;-57
2023/06/13 19:01:39;;;;;;;43.08;6.68;;;;;;;;;;4984411;28;20037;-54
2023/06/13 19:04:05;;;;;;;38.83;6.72;;;;;;;;;;4982959;28;20022;-57
2023/06/13 19:06:32;;;;;;;45.25;6.72;;;;;;;;;;4984533;28;20041;-56
2023/06/13 19:08:57;;;;;;;74.22;9.38;;;;;;;;;;4983112;28;20026;-58
2023/06/13 19:11:22;;;;;;;38.42;6.80;;;;;;;;;;4981338;28;20030;-57
2023/06/13 19:13:48;;;;;;;68.27;9.00;;;;;;;;;;4982339;28;20022;-57
2023/06/13 19:16:13;;;;;;;37.45;6.38;;;;;;;;;;4981462;28;20038;-58
2023/06/13 19:18:40;;;;;;;40.30;6.87;;;;;;;;;;4984093;28;20017;-58
2023/06/13 19:21:05;;;;;;;46.38;7.43;;;;;;;;;;4982607;28;20280;-56
2023/06/13 19:23:31;;;;;;;49.35;7.28;;;;;;;;;;4983993;28;20034;-58
2023/06/13 19:25:56;;;;;;;78.17;10.20;;;;;;;;;;4979293;28;20026;-56
2023/06/13 19:28:21;;;;;;;41.40;6.75;;;;;;;;;;4983225;28;20026;-58
2023/06/13 19:30:47;;;;;;;66.88;8.75;;;;;;;;;;4979596;28;20038;-53
2023/06/13 19:33:12;;;;;;;34.07;6.17;;;;;;;;;;4984095;28;20471;-58
2023/06/13 19:35:39;;;;;;;44.58;6.82;;;;;;;;;;4982889;28;20073;-55
2023/06/13 19:38:04;;;;;;;47.40;7.32;;;;;;;;;;4981131;28;20117;-59
2023/06/13 19:40:29;;;;;;;43.92;7.18;;;;;;;;;;4984950;28;20034;-59
2023/06/13 19:42:55;;;;;;;88.60;11.25;;;;;;;;;;4980610;28;20508;-58
2023/06/13 19:45:20;;;;;;;46.65;7.10;;;;;;;;;;4984804;28;20026;-56
2023/06/13 19:47:46;;;;;;;58.63;7.18;;;;;;;;;;4982677;28;20161;-58
2023/06/13 19:50:13;;;;;;;40.63;6.90;;;;;;;;;;4985491;28;20034;-57
2023/06/13 19:52:38;;;;;;;51.97;7.35;;;;;;;;;;4981518;28;20042;-55
2023/06/13 19:55:04;;;;;;;90.65;10.65;;;;;;;;;;4982385;28;21157;-57
2023/06/13 19:57:31;;;;;;;55.63;7.80;;;;;;;;;;4982089;28;20071;-56
2023/06/13 19:59:56;;;;;;;76.65;10.43;;;;;;;;;;4982807;28;20022;-57
2023/06/13 20:02:21;;;;;;;50.47;7.75;;;;;;;;;;4983465;28;20050;-57
2023/06/13 20:04:46;;;;;;;43.20;7.23;;;;;;;;;;4983386;28;20026;-57
2023/06/13 20:07:12;;;;;;;38.95;6.43;;;;;;;;;;4983521;28;20269;-56
2023/06/13 20:09:37;;;;;;;59.45;8.13;;;;;;;;;;4985380;28;20465;-58
2023/06/13 20:12:02;;;;;;;79.23;10.40;;;;;;;;;;4981057;28;20039;-57
2023/06/13 20:14:28;;;;;;;48.80;7.43;;;;;;;;;;4983445;28;20088;-57
2023/06/13 20:16:55;;;;;;;78.03;10.37;;;;;;;;;;4980455;28;20540;-57
2023/06/13 20:19:20;;;;;;;56.33;8.07;;;;;;;;;;4984896;28;20277;-57
2023/06/13 20:21:46;;;;;;;56.30;8.27;;;;;;;;;;4982278;28;20031;-56
2023/06/13 20:24:12;;;;;;;35.15;6.13;;;;;;;;;;4980481;28;20038;-56
2023/06/13 20:26:37;;;;;;;60.30;7.80;;;;;;;;;;4983127;28;20510;-58
2023/06/13 20:29:02;;;;;;;84.93;10.17;;;;;;;;;;4982577;28;20026;-58
2023/06/13 20:31:27;;;;;;;44.33;7.10;;;;;;;;;;4984624;28;20775;-57
2023/06/13 20:33:53;;;;;;;83.27;10.23;;;;;;;;;;4981148;28;20327;-58
2023/06/13 20:36:18;;;;;;;41.83;6.65;;;;;;;;;;4984205;28;20278;-58
2023/06/13 20:38:44;;;;;;;46.50;7.20;;;;;;;;;;4986513;28;20026;-57
2023/06/13 20:41:09;;;;;;;62.15;8.57;;;;;;;;;;4981442;28;20998;-55
2023/06/13 20:43:34;;;;;;;48.00;7.22;;;;;;;;;;4983478;28;20025;-56
2023/06/13 20:46:00;;;;;;;112.37;13.47;;;;;;;;;;4979609;28;20026;-56
2023/06/13 20:48:25;;;;;;;58.83;8.10;;;;;;;;;;4982243;28;20619;-57
2023/06/13 20:50:54;;;;;;;49.80;7.60;;;;;;;;;;4980848;28;20588;-57
2023/06/13 20:53:19;;;;;;;51.90;7.65;;;;;;;;;;4982719;28;20034;-57
2023/06/13 20:55:45;;;;;;;55.80;8.23;;;;;;;;;;4983323;28;20034;-57
2023/06/13 20:58:10;;;;;;;44.60;7.57;;;;;;;;;;4983378;28;20100;-58
2023/06/13 21:00:36;;;;;;;54.53;8.55;;;;;;;;;;4982928;28;20099;-59
2023/06/13 21:03:02;;;;;;;97.00;12.77;;;;;;;;;;4980877;28;20022;-59
2023/06/13 21:05:27;;;;;;;51.70;7.70;;;;;;;;;;4982653;28;20042;-58
2023/06/13 21:07:57;;;;;;;55.28;8.40;;;;;;;;;;4981838;28;20133;-58
2023/06/13 21:10:23;;;;;;;66.15;8.18;;;;;;;;;;4982178;28;20397;-57
2023/06/13 21:12:49;;;;;;;45.80;7.50;;;;;;;;;;4983458;28;20138;-57
2023/06/13 21:15:18;;;;;;;59.20;8.32;;;;;;;;;;4981107;28;20022;-58
2023/06/13 21:17:45;;;;;;;42.67;6.78;;;;;;;;;;4985830;28;20084;-58
2023/06/13 21:20:10;;;;;;;40.63;7.22;;;;;;;;;;4985402;28;20014;-60
2023/06/13 21:22:36;;;;;;;40.97;6.95;;;;;;;;;;4987048;28;20026;-59
2023/06/13 21:25:02;;;;;;;65.05;9.15;;;;;;;;;;4985169;28;20133;-58
2023/06/13 21:27:27;;;;;;;38.38;6.50;;;;;;;;;;4985263;28;20042;-58
2023/06/13 21:29:52;;;;;;;31.17;6.03;;;;;;;;;;4988886;28;20089;-56
